sensor_id;sensor_type;location;lat;lon;timestamp;pressure;altitude;pressure_sealevel;temperature;humidity
59104;BME280;51449;51.676;5.812;2023-06-14T00:02:19;101350.94;;;20.76;36.72
59104;BME280;51449;51.676;5.812;2023-06-14T00:05:00;101364.09;;;20.71;36.38
59104;BME280;51449;51.676;5.812;2023-06-14T00:07:41;101361.69;;;20.70;36.13
59104;BME280;51449;51.676;5.812;2023-06-14T00:10:25;101361.28;;;20.68;36.11
59104;BME280;51449;51.676;5.812;2023-06-14T00:13:06;101346.44;;;20.64;36.09
59104;BME280;51449;51.676;5.812;2023-06-14T00:15:51;101344.81;;;20.59;36.05
59104;BME280;51449;51.676;5.812;2023-06-14T00:18:35;101361.59;;;20.56;35.95
59104;BME280;51449;51.676;5.812;2023-06-14T00:21:15;101367.13;;;20.48;35.88
59104;BME280;51449;51.676;5.812;2023-06-14T00:23:57;101357.88;;;20.44;35.83
59104;BME280;51449;51.676;5.812;2023-06-14T00:26:38;101358.25;;;20.43;36.09
59104;BME280;51449;51.676;5.812;2023-06-14T00:29:18;101360.66;;;20.41;35.58
59104;BME280;51449;51.676;5.812;2023-06-14T00:31:58;101364.63;;;20.36;35.98
59104;BME280;51449;51.676;5.812;2023-06-14T00:34:39;101359.38;;;20.31;35.71
59104;BME280;51449;51.676;5.812;2023-06-14T00:37:21;101361.78;;;20.29;36.05
59104;BME280;51449;51.676;5.812;2023-06-14T00:40:03;101372.94;;;20.25;36.10
59104;BME280;51449;51.676;5.812;2023-06-14T00:42:45;101371.34;;;20.24;35.93
59104;BME280;51449;51.676;5.812;2023-06-14T00:45:25;101376.47;;;20.19;35.93
59104;BME280;51449;51.676;5.812;2023-06-14T00:48:06;101373.22;;;20.13;36.12
59104;BME280;51449;51.676;5.812;2023-06-14T00:50:50;101372.34;;;20.05;36.38
59104;BME280;51449;51.676;5.812;2023-06-14T00:53:33;101371.09;;;19.99;36.38
59104;BME280;51449;51.676;5.812;2023-06-14T00:56:15;101380.66;;;19.95;36.40
59104;BME280;51449;51.676;5.812;2023-06-14T00:58:57;101373.03;;;19.92;36.41
59104;BME280;51449;51.676;5.812;2023-06-14T01:01:37;101368.63;;;19.91;36.56
59104;BME280;51449;51.676;5.812;2023-06-14T01:04:21;101373.78;;;19.85;36.69
59104;BME280;51449;51.676;5.812;2023-06-14T01:07:09;101378.09;;;19.79;36.74
59104;BME280;51449;51.676;5.812;2023-06-14T01:10:08;101377.25;;;19.75;36.80
59104;BME280;51449;51.676;5.812;2023-06-14T01:13:12;101377.22;;;19.71;36.87
59104;BME280;51449;51.676;5.812;2023-06-14T01:15:56;101379.97;;;19.67;36.66
59104;BME280;51449;51.676;5.812;2023-06-14T01:18:37;101378.28;;;19.63;36.99
59104;BME280;51449;51.676;5.812;2023-06-14T01:21:25;101379.47;;;19.62;36.86
59104;BME280;51449;51.676;5.812;2023-06-14T01:24:06;101381.03;;;19.59;36.95
59104;BME280;51449;51.676;5.812;2023-06-14T01:26:47;101381.03;;;19.59;37.17
59104;BME280;51449;51.676;5.812;2023-06-14T01:29:32;101381.84;;;19.60;37.10
59104;BME280;51449;51.676;5.812;2023-06-14T01:32:17;101372.66;;;19.59;37.18
59104;BME280;51449;51.676;5.812;2023-06-14T01:34:58;101377.44;;;19.59;37.16
59104;BME280;51449;51.676;5.812;2023-06-14T01:37:42;101377.81;;;19.57;37.15
59104;BME280;51449;51.676;5.812;2023-06-14T01:40:23;101377.41;;;19.55;37.29
59104;BME280;51449;51.676;5.812;2023-06-14T01:43:05;101380.97;;;19.52;37.58
59104;BME280;51449;51.676;5.812;2023-06-14T01:45:48;101388.91;;;19.50;37.58
59104;BME280;51449;51.676;5.812;2023-06-14T01:48:31;101380.09;;;19.48;37.49
59104;BME280;51449;51.676;5.812;2023-06-14T01:51:12;101380.50;;;19.46;37.58
59104;BME280;51449;51.676;5.812;2023-06-14T01:53:54;101376.91;;;19.46;37.82
59104;BME280;51449;51.676;5.812;2023-06-14T01:56:34;101385.66;;;19.44;37.68
59104;BME280;51449;51.676;5.812;2023-06-14T01:59:15;101382.44;;;19.42;37.81
59104;BME280;51449;51.676;5.812;2023-06-14T02:01:56;101389.66;;;19.43;38.07
59104;BME280;51449;51.676;5.812;2023-06-14T02:04:36;101380.41;;;19.39;38.03
59104;BME280;51449;51.676;5.812;2023-06-14T02:07:16;101377.16;;;19.34;38.06
59104;BME280;51449;51.676;5.812;2023-06-14T02:09:57;101385.84;;;19.29;38.28
59104;BME280;51449;51.676;5.812;2023-06-14T02:12:37;101375.44;;;19.25;38.13
59104;BME280;51449;51.676;5.812;2023-06-14T02:15:18;101384.22;;;19.24;38.17
59104;BME280;51449;51.676;5.812;2023-06-14T02:18:03;101381.81;;;19.22;38.50
59104;BME280;51449;51.676;5.812;2023-06-14T02:20:46;101371.78;;;19.18;38.63
59104;BME280;51449;51.676;5.812;2023-06-14T02:23:26;101364.09;;;19.11;38.54
59104;BME280;51449;51.676;5.812;2023-06-14T02:26:06;101379.19;;;19.07;38.80
59104;BME280;51449;51.676;5.812;2023-06-14T02:28:47;101374.38;;;19.03;38.83
59104;BME280;51449;51.676;5.812;2023-06-14T02:31:27;101389.09;;;19.00;38.77
59104;BME280;51449;51.676;5.812;2023-06-14T02:34:09;101386.63;;;18.95;39.00
59104;BME280;51449;51.676;5.812;2023-06-14T02:36:49;101379.81;;;18.93;39.38
59104;BME280;51449;51.676;5.812;2023-06-14T02:39:29;101386.13;;;18.90;39.84
59104;BME280;51449;51.676;5.812;2023-06-14T02:42:10;101387.69;;;18.87;39.93
59104;BME280;51449;51.676;5.812;2023-06-14T02:44:50;101387.66;;;18.84;39.68
59104;BME280;51449;51.676;5.812;2023-06-14T02:47:33;101390.38;;;18.80;40.00
59104;BME280;51449;51.676;5.812;2023-06-14T02:50:14;101388.00;;;18.78;40.12
59104;BME280;51449;51.676;5.812;2023-06-14T02:52:54;101389.88;;;18.74;39.93
59104;BME280;51449;51.676;5.812;2023-06-14T02:55:37;101387.78;;;18.68;40.32
59104;BME280;51449;51.676;5.812;2023-06-14T02:58:21;101394.50;;;18.63;40.48
59104;BME280;51449;51.676;5.812;2023-06-14T03:01:01;101397.66;;;18.61;40.25
59104;BME280;51449;51.676;5.812;2023-06-14T03:03:44;101399.22;;;18.59;40.28
59104;BME280;51449;51.676;5.812;2023-06-14T03:06:24;101395.19;;;18.56;40.77
59104;BME280;51449;51.676;5.812;2023-06-14T03:09:06;101408.72;;;18.54;40.83
59104;BME280;51449;51.676;5.812;2023-06-14T03:11:49;101402.25;;;18.50;41.19
59104;BME280;51449;51.676;5.812;2023-06-14T03:14:32;101404.63;;;18.48;41.23
59104;BME280;51449;51.676;5.812;2023-06-14T03:17:12;101411.75;;;18.46;41.06
59104;BME280;51449;51.676;5.812;2023-06-14T03:19:53;101410.47;;;18.39;41.51
59104;BME280;51449;51.676;5.812;2023-06-14T03:22:34;101412.47;;;18.39;41.35
59104;BME280;51449;51.676;5.812;2023-06-14T03:25:14;101415.50;;;18.30;41.34
59104;BME280;51449;51.676;5.812;2023-06-14T03:27:57;101417.00;;;18.24;41.45
59104;BME280;51449;51.676;5.812;2023-06-14T03:30:37;101415.38;;;18.23;41.24
59104;BME280;51449;51.676;5.812;2023-06-14T03:33:18;101417.72;;;18.21;41.78
59104;BME280;51449;51.676;5.812;2023-06-14T03:35:59;101418.91;;;18.20;42.28
59104;BME280;51449;51.676;5.812;2023-06-14T03:38:40;101429.63;;;18.18;42.45
59104;BME280;51449;51.676;5.812;2023-06-14T03:41:21;101426.41;;;18.16;42.19
59104;BME280;51449;51.676;5.812;2023-06-14T03:44:03;101425.97;;;18.14;42.29
59104;BME280;51449;51.676;5.812;2023-06-14T03:46:44;101429.50;;;18.11;42.52
59104;BME280;51449;51.676;5.812;2023-06-14T03:49:26;101434.28;;;18.10;42.43
59104;BME280;51449;51.676;5.812;2023-06-14T03:52:06;101434.63;;;18.09;42.42
59104;BME280;51449;51.676;5.812;2023-06-14T03:54:49;101431.47;;;18.10;42.56
59104;BME280;51449;51.676;5.812;2023-06-14T03:57:32;101437.09;;;18.14;42.46
59104;BME280;51449;51.676;5.812;2023-06-14T04:00:13;101438.00;;;18.18;42.61
59104;BME280;51449;51.676;5.812;2023-06-14T04:02:56;101435.28;;;18.22;42.49
59104;BME280;51449;51.676;5.812;2023-06-14T04:05:36;101438.44;;;18.20;42.33
59104;BME280;51449;51.676;5.812;2023-06-14T04:08:19;101437.63;;;18.20;42.37
59104;BME280;51449;51.676;5.812;2023-06-14T04:10:59;101441.59;;;18.18;42.57
59104;BME280;51449;51.676;5.812;2023-06-14T04:13:40;101443.22;;;18.20;42.36
59104;BME280;51449;51.676;5.812;2023-06-14T04:16:21;101449.22;;;18.22;42.53
59104;BME280;51449;51.676;5.812;2023-06-14T04:19:01;101455.22;;;18.24;42.48
59104;BME280;51449;51.676;5.812;2023-06-14T04:21:41;101454.50;;;18.27;42.38
59104;BME280;51449;51.676;5.812;2023-06-14T04:24:22;101461.31;;;18.29;42.49
59104;BME280;51449;51.676;5.812;2023-06-14T04:27:03;101456.53;;;18.30;42.46
59104;BME280;51449;51.676;5.812;2023-06-14T04:29:44;101459.38;;;18.33;42.53
59104;BME280;51449;51.676;5.812;2023-06-14T04:32:27;101456.22;;;18.35;42.96
59104;BME280;51449;51.676;5.812;2023-06-14T04:35:08;101454.63;;;18.34;42.84
59104;BME280;51449;51.676;5.812;2023-06-14T04:37:51;101460.22;;;18.34;42.84
59104;BME280;51449;51.676;5.812;2023-06-14T04:40:34;101461.00;;;18.34;42.72
59104;BME280;51449;51.676;5.812;2023-06-14T04:43:16;101471.41;;;18.37;42.78
59104;BME280;51449;51.676;5.812;2023-06-14T04:46:00;101464.28;;;18.40;42.85
59104;BME280;51449;51.676;5.812;2023-06-14T04:48:43;101473.91;;;18.43;43.21
59104;BME280;51449;51.676;5.812;2023-06-14T04:51:24;101465.22;;;18.48;43.01
59104;BME280;51449;51.676;5.812;2023-06-14T04:54:10;101470.47;;;18.53;42.97
59104;BME280;51449;51.676;5.812;2023-06-14T04:56:54;101461.88;;;18.61;43.28
59104;BME280;51449;51.676;5.812;2023-06-14T04:59:38;101467.88;;;18.64;43.07
59104;BME280;51449;51.676;5.812;2023-06-14T05:02:18;101469.16;;;18.70;42.85
59104;BME280;51449;51.676;5.812;2023-06-14T05:04:58;101470.13;;;18.77;43.04
59104;BME280;51449;51.676;5.812;2023-06-14T05:07:39;101473.03;;;18.85;43.12
59104;BME280;51449;51.676;5.812;2023-06-14T05:10:22;101478.00;;;18.95;42.81
59104;BME280;51449;51.676;5.812;2023-06-14T05:13:02;101482.94;;;19.05;42.71
59104;BME280;51449;51.676;5.812;2023-06-14T05:15:43;101479.13;;;19.17;42.88
59104;BME280;51449;51.676;5.812;2023-06-14T05:18:24;101485.22;;;19.26;42.39
59104;BME280;51449;51.676;5.812;2023-06-14T05:21:08;101490.00;;;19.25;42.58
59104;BME280;51449;51.676;5.812;2023-06-14T05:23:48;101489.34;;;19.36;42.58
59104;BME280;51449;51.676;5.812;2023-06-14T05:26:30;101494.66;;;19.44;42.57
59104;BME280;51449;51.676;5.812;2023-06-14T05:29:11;101498.78;;;19.54;42.63
59104;BME280;51449;51.676;5.812;2023-06-14T05:31:52;101499.75;;;19.65;42.11
59104;BME280;51449;51.676;5.812;2023-06-14T05:34:33;101500.66;;;19.73;42.04
59104;BME280;51449;51.676;5.812;2023-06-14T05:37:13;101492.75;;;19.79;42.14
59104;BME280;51449;51.676;5.812;2023-06-14T05:39:55;101503.25;;;19.89;42.01
59104;BME280;51449;51.676;5.812;2023-06-14T05:42:36;101503.31;;;19.96;41.79
59104;BME280;51449;51.676;5.812;2023-06-14T05:45:17;101511.81;;;20.03;42.07
59104;BME280;51449;51.676;5.812;2023-06-14T05:47:57;101510.66;;;20.08;41.36
59104;BME280;51449;51.676;5.812;2023-06-14T05:50:38;101501.56;;;20.18;41.47
59104;BME280;51449;51.676;5.812;2023-06-14T05:53:20;101512.81;;;20.22;40.96
59104;BME280;51449;51.676;5.812;2023-06-14T05:56:00;101515.72;;;20.33;41.34
59104;BME280;51449;51.676;5.812;2023-06-14T05:58:41;101511.41;;;20.39;40.83
59104;BME280;51449;51.676;5.812;2023-06-14T06:01:22;101523.03;;;20.44;40.69
59104;BME280;51449;51.676;5.812;2023-06-14T06:04:02;101520.25;;;20.48;40.74
59104;BME280;51449;51.676;5.812;2023-06-14T06:06:43;101524.34;;;20.54;40.74
59104;BME280;51449;51.676;5.812;2023-06-14T06:09:23;101523.28;;;20.66;40.68
59104;BME280;51449;51.676;5.812;2023-06-14T06:12:06;101523.72;;;20.71;40.41
59104;BME280;51449;51.676;5.812;2023-06-14T06:14:47;101525.38;;;20.80;40.12
59104;BME280;51449;51.676;5.812;2023-06-14T06:17:27;101521.84;;;20.86;40.54
59104;BME280;51449;51.676;5.812;2023-06-14T06:20:25;101533.94;;;20.98;40.29
59104;BME280;51449;51.676;5.812;2023-06-14T06:23:10;101529.19;;;21.05;39.94
59104;BME280;51449;51.676;5.812;2023-06-14T06:25:50;101532.91;;;21.20;40.21
59104;BME280;51449;51.676;5.812;2023-06-14T06:28:32;101535.41;;;21.32;39.97
59104;BME280;51449;51.676;5.812;2023-06-14T06:31:12;101539.03;;;21.36;39.42
59104;BME280;51449;51.676;5.812;2023-06-14T06:33:54;101547.09;;;21.42;39.71
59104;BME280;51449;51.676;5.812;2023-06-14T06:36:34;101537.09;;;21.44;39.27
59104;BME280;51449;51.676;5.812;2023-06-14T06:39:15;101541.59;;;21.56;39.32
59104;BME280;51449;51.676;5.812;2023-06-14T06:41:56;101547.28;;;21.74;39.44
59104;BME280;51449;51.676;5.812;2023-06-14T06:44:45;101542.94;;;21.91;39.14
59104;BME280;51449;51.676;5.812;2023-06-14T06:47:26;101556.63;;;22.03;38.44
59104;BME280;51449;51.676;5.812;2023-06-14T06:50:07;101545.44;;;22.10;38.21
59104;BME280;51449;51.676;5.812;2023-06-14T06:52:48;101553.91;;;22.21;37.95
59104;BME280;51449;51.676;5.812;2023-06-14T06:55:28;101554.75;;;22.36;37.71
59104;BME280;51449;51.676;5.812;2023-06-14T06:58:10;101555.19;;;22.52;37.81
59104;BME280;51449;51.676;5.812;2023-06-14T07:00:51;101558.03;;;22.67;38.24
59104;BME280;51449;51.676;5.812;2023-06-14T07:03:31;101562.03;;;22.80;37.83
59104;BME280;51449;51.676;5.812;2023-06-14T07:06:12;101562.88;;;22.95;37.15
59104;BME280;51449;51.676;5.812;2023-06-14T07:08:52;101566.09;;;23.07;37.04
59104;BME280;51449;51.676;5.812;2023-06-14T07:11:33;101568.50;;;23.16;36.40
59104;BME280;51449;51.676;5.812;2023-06-14T07:14:14;101580.53;;;23.31;35.76
59104;BME280;51449;51.676;5.812;2023-06-14T07:16:55;101566.88;;;23.33;35.96
59104;BME280;51449;51.676;5.812;2023-06-14T07:19:36;101566.03;;;23.43;36.08
59104;BME280;51449;51.676;5.812;2023-06-14T07:22:19;101573.25;;;23.59;35.67
59104;BME280;51449;51.676;5.812;2023-06-14T07:25:00;101569.22;;;23.70;35.59
59104;BME280;51449;51.676;5.812;2023-06-14T07:27:42;101574.44;;;23.79;35.19
59104;BME280;51449;51.676;5.812;2023-06-14T07:30:23;101569.97;;;23.89;34.58
59104;BME280;51449;51.676;5.812;2023-06-14T07:33:06;101575.13;;;24.12;35.04
59104;BME280;51449;51.676;5.812;2023-06-14T07:35:48;101580.28;;;24.24;34.26
59104;BME280;51449;51.676;5.812;2023-06-14T07:38:29;101579.44;;;24.31;34.10
59104;BME280;51449;51.676;5.812;2023-06-14T07:41:10;101579.00;;;24.36;33.34
59104;BME280;51449;51.676;5.812;2023-06-14T07:43:50;101577.41;;;24.35;32.90
59104;BME280;51449;51.676;5.812;2023-06-14T07:46:31;101580.59;;;24.41;33.08
59104;BME280;51449;51.676;5.812;2023-06-14T07:49:11;101587.78;;;24.52;33.81
59104;BME280;51449;51.676;5.812;2023-06-14T07:51:52;101591.75;;;24.66;33.38
59104;BME280;51449;51.676;5.812;2023-06-14T07:54:33;101588.44;;;24.74;33.11
59104;BME280;51449;51.676;5.812;2023-06-14T07:57:14;101591.63;;;24.84;32.51
59104;BME280;51449;51.676;5.812;2023-06-14T07:59:55;101596.84;;;24.85;31.17
59104;BME280;51449;51.676;5.812;2023-06-14T08:02:35;101599.56;;;24.96;31.65
59104;BME280;51449;51.676;5.812;2023-06-14T08:05:16;101592.28;;;25.02;31.21
59104;BME280;51449;51.676;5.812;2023-06-14T08:07:56;101591.41;;;25.12;31.24
59104;BME280;51449;51.676;5.812;2023-06-14T08:10:37;101598.97;;;25.23;31.16
59104;BME280;51449;51.676;5.812;2023-06-14T08:13:17;101601.34;;;25.28;31.03
59104;BME280;51449;51.676;5.812;2023-06-14T08:15:57;101594.84;;;25.34;31.09
59104;BME280;51449;51.676;5.812;2023-06-14T08:18:38;101600.75;;;25.51;31.38
59104;BME280;51449;51.676;5.812;2023-06-14T08:21:19;101598.13;;;25.67;29.47
59104;BME280;51449;51.676;5.812;2023-06-14T08:23:59;101596.81;;;25.79;28.82
59104;BME280;51449;51.676;5.812;2023-06-14T08:26:40;101601.16;;;25.87;28.63
59104;BME280;51449;51.676;5.812;2023-06-14T08:29:21;101594.16;;;25.99;28.82
59104;BME280;51449;51.676;5.812;2023-06-14T08:32:02;101603.31;;;26.10;29.09
59104;BME280;51449;51.676;5.812;2023-06-14T08:34:42;101610.34;;;26.29;29.20
59104;BME280;51449;51.676;5.812;2023-06-14T08:37:39;101607.34;;;26.43;28.81
59104;BME280;51449;51.676;5.812;2023-06-14T08:40:23;101615.34;;;26.48;28.53
59104;BME280;51449;51.676;5.812;2023-06-14T08:43:04;101602.72;;;26.57;28.31
59104;BME280;51449;51.676;5.812;2023-06-14T08:45:46;101611.47;;;26.66;28.71
59104;BME280;51449;51.676;5.812;2023-06-14T08:48:29;101601.53;;;26.81;27.86
59104;BME280;51449;51.676;5.812;2023-06-14T08:51:13;101599.47;;;26.85;27.00
59104;BME280;51449;51.676;5.812;2023-06-14T08:53:56;101596.94;;;26.91;27.61
59104;BME280;51449;51.676;5.812;2023-06-14T08:56:38;101604.81;;;27.03;28.06
59104;BME280;51449;51.676;5.812;2023-06-14T08:59:21;101594.19;;;27.11;27.15
59104;BME280;51449;51.676;5.812;2023-06-14T09:02:02;101595.94;;;27.05;26.78
59104;BME280;51449;51.676;5.812;2023-06-14T09:04:52;101595.13;;;27.04;27.62
59104;BME280;51449;51.676;5.812;2023-06-14T09:07:33;101591.81;;;27.09;27.69
59104;BME280;51449;51.676;5.812;2023-06-14T09:10:15;101594.84;;;27.22;27.24
59104;BME280;51449;51.676;5.812;2023-06-14T09:12:55;101604.13;;;27.23;26.91
59104;BME280;51449;51.676;5.812;2023-06-14T09:15:36;101605.28;;;27.25;26.41
59104;BME280;51449;51.676;5.812;2023-06-14T09:18:16;101603.25;;;27.26;26.91
59104;BME280;51449;51.676;5.812;2023-06-14T09:20:58;101600.88;;;27.24;26.01
59104;BME280;51449;51.676;5.812;2023-06-14T09:23:40;101602.53;;;27.22;26.29
59104;BME280;51449;51.676;5.812;2023-06-14T09:26:22;101600.38;;;27.29;26.22
59104;BME280;51449;51.676;5.812;2023-06-14T09:29:05;101603.50;;;27.35;25.63
59104;BME280;51449;51.676;5.812;2023-06-14T09:31:46;101603.09;;;27.37;25.98
59104;BME280;51449;51.676;5.812;2023-06-14T09:34:28;101609.78;;;27.46;25.96
59104;BME280;51449;51.676;5.812;2023-06-14T09:37:09;101598.47;;;27.46;26.01
59104;BME280;51449;51.676;5.812;2023-06-14T09:39:50;101600.03;;;27.47;26.16
59104;BME280;51449;51.676;5.812;2023-06-14T09:42:31;101613.94;;;27.62;25.91
59104;BME280;51449;51.676;5.812;2023-06-14T09:45:12;101604.06;;;27.70;26.04
59104;BME280;51449;51.676;5.812;2023-06-14T09:47:54;101607.41;;;27.65;26.10
59104;BME280;51449;51.676;5.812;2023-06-14T09:50:50;101601.97;;;27.74;26.24
59104;BME280;51449;51.676;5.812;2023-06-14T09:53:30;101604.44;;;27.72;25.41
59104;BME280;51449;51.676;5.812;2023-06-14T09:56:28;101600.44;;;27.69;25.37
59104;BME280;51449;51.676;5.812;2023-06-14T09:59:12;101600.94;;;27.64;24.47
59104;BME280;51449;51.676;5.812;2023-06-14T10:01:55;101602.06;;;27.70;25.30
59104;BME280;51449;51.676;5.812;2023-06-14T10:04:41;101602.63;;;27.82;25.45
59104;BME280;51449;51.676;5.812;2023-06-14T10:08:20;101595.63;;;27.90;25.56
59104;BME280;51449;51.676;5.812;2023-06-14T10:10:39;101590.16;;;27.99;25.51
59104;BME280;51449;51.676;5.812;2023-06-14T10:13:21;101584.34;;;28.06;25.97
59104;BME280;51449;51.676;5.812;2023-06-14T10:16:07;101589.34;;;28.18;25.81
59104;BME280;51449;51.676;5.812;2023-06-14T10:19:15;101597.63;;;28.29;25.70
59104;BME280;51449;51.676;5.812;2023-06-14T10:22:25;101597.91;;;28.35;24.91
59104;BME280;51449;51.676;5.812;2023-06-14T10:25:26;101606.44;;;28.15;24.64
59104;BME280;51449;51.676;5.812;2023-06-14T10:28:20;101594.75;;;27.93;25.22
59104;BME280;51449;51.676;5.812;2023-06-14T10:31:05;101602.59;;;27.85;25.43
59104;BME280;51449;51.676;5.812;2023-06-14T10:33:55;101594.53;;;27.84;25.61
59104;BME280;51449;51.676;5.812;2023-06-14T10:36:38;101595.56;;;27.93;25.48
59104;BME280;51449;51.676;5.812;2023-06-14T10:39:21;101597.66;;;27.89;25.55
59104;BME280;51449;51.676;5.812;2023-06-14T10:42:02;101597.78;;;27.82;25.88
59104;BME280;51449;51.676;5.812;2023-06-14T10:44:49;101585.72;;;27.78;26.02
59104;BME280;51449;51.676;5.812;2023-06-14T10:47:33;101594.53;;;27.84;26.31
59104;BME280;51449;51.676;5.812;2023-06-14T10:50:15;101590.16;;;27.99;25.61
59104;BME280;51449;51.676;5.812;2023-06-14T10:52:59;101601.28;;;28.10;25.75
59104;BME280;51449;51.676;5.812;2023-06-14T10:55:40;101591.75;;;28.20;25.97
59104;BME280;51449;51.676;5.812;2023-06-14T10:58:20;101591.06;;;28.32;26.03
59104;BME280;51449;51.676;5.812;2023-06-14T11:01:01;101587.00;;;28.53;26.23
59104;BME280;51449;51.676;5.812;2023-06-14T11:03:51;101588.78;;;28.64;25.96
59104;BME280;51449;51.676;5.812;2023-06-14T11:06:46;101585.59;;;28.62;25.68
59104;BME280;51449;51.676;5.812;2023-06-14T11:09:44;101590.53;;;28.57;25.49
59104;BME280;51449;51.676;5.812;2023-06-14T11:12:40;101577.47;;;28.44;25.87
59104;BME280;51449;51.676;5.812;2023-06-14T11:15:49;101586.41;;;28.42;25.95
59104;BME280;51449;51.676;5.812;2023-06-14T11:18:33;101585.03;;;28.50;26.07
59104;BME280;51449;51.676;5.812;2023-06-14T11:21:17;101591.25;;;28.62;25.36
59104;BME280;51449;51.676;5.812;2023-06-14T11:23:58;101587.34;;;28.55;25.14
59104;BME280;51449;51.676;5.812;2023-06-14T11:26:40;101588.81;;;28.44;25.93
59104;BME280;51449;51.676;5.812;2023-06-14T11:29:20;101590.38;;;28.48;24.99
59104;BME280;51449;51.676;5.812;2023-06-14T11:32:01;101579.81;;;28.49;24.94
59104;BME280;51449;51.676;5.812;2023-06-14T11:34:46;101580.09;;;28.54;24.76
59104;BME280;51449;51.676;5.812;2023-06-14T11:37:27;101586.00;;;28.60;25.09
59104;BME280;51449;51.676;5.812;2023-06-14T11:40:12;101582.75;;;28.62;24.36
59104;BME280;51449;51.676;5.812;2023-06-14T11:42:59;101585.59;;;28.62;24.74
59104;BME280;51449;51.676;5.812;2023-06-14T11:45:41;101580.09;;;28.54;24.46
59104;BME280;51449;51.676;5.812;2023-06-14T11:48:23;101584.31;;;28.46;24.40
59104;BME280;51449;51.676;5.812;2023-06-14T11:51:04;101584.63;;;28.32;24.55
59104;BME280;51449;51.676;5.812;2023-06-14T11:53:45;101583.09;;;28.27;25.00
59104;BME280;51449;51.676;5.812;2023-06-14T11:56:26;101584.63;;;28.32;24.42
59104;BME280;51449;51.676;5.812;2023-06-14T11:59:07;101579.84;;;28.29;24.84
59104;BME280;51449;51.676;5.812;2023-06-14T12:01:48;101582.31;;;28.27;24.99
59104;BME280;51449;51.676;5.812;2023-06-14T12:04:28;101592.38;;;28.28;25.10
59104;BME280;51449;51.676;5.812;2023-06-14T12:07:16;101602.84;;;28.31;24.84
59104;BME280;51449;51.676;5.812;2023-06-14T12:12:42;101589.19;;;28.46;24.12
59104;BME280;51449;51.676;5.812;2023-06-14T12:15:22;101591.59;;;28.47;24.72
59104;BME280;51449;51.676;5.812;2023-06-14T12:18:06;101582.91;;;28.54;24.64
59104;BME280;51449;51.676;5.812;2023-06-14T12:20:49;101590.38;;;28.65;24.36
59104;BME280;51449;51.676;5.812;2023-06-14T12:23:46;101578.03;;;28.55;24.36
59104;BME280;51449;51.676;5.812;2023-06-14T12:26:28;101570.63;;;28.61;24.69
59104;BME280;51449;51.676;5.812;2023-06-14T12:29:09;101581.34;;;28.53;24.72
59104;BME280;51449;51.676;5.812;2023-06-14T12:31:50;101584.88;;;28.57;25.07
59104;BME280;51449;51.676;5.812;2023-06-14T12:34:30;101582.22;;;28.67;24.95
59104;BME280;51449;51.676;5.812;2023-06-14T12:37:11;101581.44;;;28.66;24.77
59104;BME280;51449;51.676;5.812;2023-06-14T12:39:51;101580.53;;;28.69;25.21
59104;BME280;51449;51.676;5.812;2023-06-14T12:42:32;101578.25;;;28.80;25.38
59104;BME280;51449;51.676;5.812;2023-06-14T12:45:14;101571.50;;;28.91;24.57
59104;BME280;51449;51.676;5.812;2023-06-14T12:47:56;101576.75;;;28.92;25.04
59104;BME280;51449;51.676;5.812;2023-06-14T12:50:36;101577.53;;;29.09;25.63
59104;BME280;51449;51.676;5.812;2023-06-14T12:53:17;101579.41;;;29.16;24.73
59104;BME280;51449;51.676;5.812;2023-06-14T12:55:57;101578.50;;;29.19;24.40
59104;BME280;51449;51.676;5.812;2023-06-14T12:58:38;101580.47;;;29.22;24.74
59104;BME280;51449;51.676;5.812;2023-06-14T13:01:19;101575.47;;;29.26;24.68
59104;BME280;51449;51.676;5.812;2023-06-14T13:04:02;101578.13;;;29.33;24.80
59104;BME280;51449;51.676;5.812;2023-06-14T13:06:42;101583.97;;;29.42;24.19
59104;BME280;51449;51.676;5.812;2023-06-14T13:09:23;101595.53;;;29.35;24.21
59104;BME280;51449;51.676;5.812;2023-06-14T13:12:06;101576.63;;;29.29;24.01
59104;BME280;51449;51.676;5.812;2023-06-14T13:14:48;101579.03;;;29.30;24.29
59104;BME280;51449;51.676;5.812;2023-06-14T13:17:28;101576.72;;;29.41;24.39
59104;BME280;51449;51.676;5.812;2023-06-14T13:20:09;101590.38;;;29.47;23.83
59104;BME280;51449;51.676;5.812;2023-06-14T13:22:50;101581.50;;;29.44;23.69
59104;BME280;51449;51.676;5.812;2023-06-14T13:25:31;101581.50;;;29.44;24.06
59104;BME280;51449;51.676;5.812;2023-06-14T13:28:12;101587.16;;;29.44;23.77
59104;BME280;51449;51.676;5.812;2023-06-14T13:30:52;101583.44;;;29.48;23.52
59104;BME280;51449;51.676;5.812;2023-06-14T13:33:32;101584.13;;;29.52;23.51
59104;BME280;51449;51.676;5.812;2023-06-14T13:36:13;101575.88;;;29.57;23.37
59104;BME280;51449;51.676;5.812;2023-06-14T13:38:53;101579.50;;;29.58;23.68
59104;BME280;51449;51.676;5.812;2023-06-14T13:41:35;101585.88;;;29.62;23.65
59104;BME280;51449;51.676;5.812;2023-06-14T13:44:15;101586.88;;;29.55;23.48
59104;BME280;51449;51.676;5.812;2023-06-14T13:46:59;101586.97;;;29.52;22.76
59104;BME280;51449;51.676;5.812;2023-06-14T13:49:40;101581.94;;;29.43;23.03
59104;BME280;51449;51.676;5.812;2023-06-14T13:52:20;101572.63;;;29.42;22.71
59104;BME280;51449;51.676;5.812;2023-06-14T13:55:01;101576.63;;;29.29;22.91
59104;BME280;51449;51.676;5.812;2023-06-14T13:57:42;101569.28;;;29.31;23.17
59104;BME280;51449;51.676;5.812;2023-06-14T14:00:22;101577.34;;;29.33;23.28
59104;BME280;51449;51.676;5.812;2023-06-14T14:03:03;101571.22;;;29.34;23.36
59104;BME280;51449;51.676;5.812;2023-06-14T14:05:45;101567.13;;;29.35;23.27
59104;BME280;51449;51.676;5.812;2023-06-14T14:08:26;101568.28;;;29.38;23.08
59104;BME280;51449;51.676;5.812;2023-06-14T14:11:06;101566.34;;;29.35;22.90
59104;BME280;51449;51.676;5.812;2023-06-14T14:13:48;101569.63;;;29.33;23.41